Time;durP1;ratioP1;P1;durP2;ratioP2;P2;SDS_P1;SDS_P2;PMS_P1;PMS_P2;Temp;Humidity;BMP_temperature;BMP_pressure;BME280_temperature;BME280_humidity;BME280_pressure;Samples;Min_cycle;Max_cycle;Signal;HPM_P1;HPM_P2
2023/11/09 00:00:26;;;;;;;1.70;1.10;;;5.70;1.00;;;;;;5055696;28;20480;-82
2023/11/09 00:02:51;;;;;;;1.00;0.90;;;5.80;1.00;;;;;;5055922;28;20393;-82
2023/11/09 00:05:17;;;;;;;2.10;1.15;;;5.60;1.00;;;;;;5040185;28;20393;-82
2023/11/09 00:07:42;;;;;;;2.50;1.20;;;5.70;1.00;;;;;;5041644;28;20397;-83
2023/11/09 00:10:10;;;;;;;2.97;1.07;;;5.90;1.00;;;;;;5057177;28;20401;-83
2023/11/09 00:12:36;;;;;;;1.30;1.20;;;5.80;1.00;;;;;;5056779;28;20377;-82
2023/11/09 00:15:03;;;;;;;1.60;1.33;;;5.90;1.00;;;;;;5038945;28;20416;-82
2023/11/09 00:17:28;;;;;;;1.50;1.40;;;5.90;1.00;;;;;;5035467;28;20815;-82
2023/11/09 00:19:54;;;;;;;1.42;1.10;;;6.00;1.00;;;;;;5035269;28;20418;-83
2023/11/09 00:22:19;;;;;;;2.10;1.40;;;5.80;1.00;;;;;;5038701;28;20390;-83
2023/11/09 00:24:47;;;;;;;2.40;1.00;;;5.90;1.00;;;;;;5055914;28;20420;-82
2023/11/09 00:27:20;;;;;;;2.80;1.50;;;5.90;1.00;;;;;;5038040;28;20393;-83
2023/11/09 00:29:46;;;;;;;1.20;1.00;;;5.80;1.00;;;;;;5056123;28;20409;-82
2023/11/09 00:32:12;;;;;;;1.83;1.50;;;5.70;1.00;;;;;;5037692;28;20409;-83
2023/11/09 00:34:41;;;;;;;3.33;1.40;;;5.50;1.00;;;;;;5055696;28;20388;-83
2023/11/09 00:37:08;;;;;;;1.20;1.00;;;5.70;1.00;;;;;;5054892;28;20385;-82
2023/11/09 00:39:34;;;;;;;1.80;1.20;;;5.70;1.00;;;;;;5054914;28;20389;-83
2023/11/09 00:41:59;;;;;;;1.30;0.80;;;5.80;1.00;;;;;;5055328;28;20505;-83
2023/11/09 00:44:25;;;;;;;1.60;1.27;;;5.70;1.00;;;;;;5055241;28;20489;-82
2023/11/09 00:46:50;;;;;;;1.73;1.20;;;5.80;1.00;;;;;;5037435;28;20401;-82
2023/11/09 00:49:16;;;;;;;1.50;1.00;;;5.80;1.00;;;;;;5055172;28;20393;-82
2023/11/09 00:51:42;;;;;;;1.80;1.33;;;5.80;1.00;;;;;;5044000;28;20395;-82
2023/11/09 00:54:08;;;;;;;1.10;1.00;;;5.80;1.00;;;;;;5033351;28;21100;-82
2023/11/09 00:56:33;;;;;;;1.50;1.30;;;5.80;1.00;;;;;;5033893;28;20406;-82
2023/11/09 00:58:59;;;;;;;1.10;0.90;;;5.90;1.00;;;;;;5034373;28;20383;-82
2023/11/09 01:01:24;;;;;;;1.40;1.00;;;5.90;1.00;;;;;;5056616;28;20413;-82
2023/11/09 01:03:50;;;;;;;1.23;1.13;;;6.00;1.00;;;;;;5072769;28;20502;-82
2023/11/09 01:06:15;;;;;;;1.80;1.00;;;5.90;1.00;;;;;;5036842;28;20912;-82
2023/11/09 01:08:41;;;;;;;1.07;0.90;;;5.90;1.00;;;;;;5033070;28;20763;-82
2023/11/09 01:11:07;;;;;;;2.03;1.00;;;6.00;1.00;;;;;;5033448;28;20411;-83
2023/11/09 01:13:34;;;;;;;1.30;1.00;;;5.90;1.00;;;;;;5034042;28;20453;-82
2023/11/09 01:16:01;;;;;;;1.90;0.90;;;5.90;1.00;;;;;;5034554;28;20470;-82
2023/11/09 01:18:27;;;;;;;1.00;0.90;;;5.80;1.00;;;;;;5034648;28;20410;-82
2023/11/09 01:20:52;;;;;;;1.10;0.80;;;5.70;1.00;;;;;;5034307;28;20391;-82
2023/11/09 01:23:19;;;;;;;1.30;1.20;;;5.80;1.00;;;;;;5033036;28;20391;-82
2023/11/09 01:25:44;;;;;;;1.63;0.90;;;5.80;1.00;;;;;;5033588;28;20453;-82
2023/11/09 01:28:11;;;;;;;1.13;0.80;;;5.80;1.00;;;;;;5035286;28;20397;-82
2023/11/09 01:30:36;;;;;;;1.30;0.90;;;5.80;1.00;;;;;;5046499;28;20453;-81
2023/11/09 01:33:04;;;;;;;1.45;1.00;;;5.60;1.00;;;;;;5034703;28;20379;-82
2023/11/09 01:35:30;;;;;;;1.30;0.90;;;5.60;1.00;;;;;;5034230;28;20464;-82
2023/11/09 01:37:56;;;;;;;1.02;0.90;;;5.60;1.00;;;;;;5062459;28;20465;-82
2023/11/09 01:40:23;;;;;;;1.10;0.90;;;5.50;1.00;;;;;;5033333;28;20397;-82
2023/11/09 01:42:55;;;;;;;2.00;1.00;;;5.60;1.00;;;;;;5039721;28;20493;-82
2023/11/09 01:45:21;;;;;;;1.10;1.00;;;5.50;1.00;;;;;;5055497;28;20411;-82
2023/11/09 01:47:47;;;;;;;1.13;0.90;;;5.60;1.00;;;;;;5053828;28;20425;-82
2023/11/09 01:50:15;;;;;;;2.70;1.05;;;5.50;1.00;;;;;;5035881;28;20824;-82
2023/11/09 01:52:41;;;;;;;2.80;1.15;;;5.60;1.00;;;;;;5035650;28;20435;-82
2023/11/09 01:55:07;;;;;;;1.08;0.70;;;5.60;1.00;;;;;;5039594;28;20427;-82
2023/11/09 01:57:34;;;;;;;1.95;1.10;;;5.60;1.00;;;;;;5048539;28;20386;-82
2023/11/09 02:00:01;;;;;;;2.00;1.20;;;5.50;1.00;;;;;;5062892;28;20385;-82
2023/11/09 02:02:26;;;;;;;1.00;0.90;;;5.90;1.00;;;;;;5050486;28;20452;-81
2023/11/09 02:04:53;;;;;;;2.10;0.80;;;5.60;1.00;;;;;;5051514;28;20387;-81
2023/11/09 02:07:19;;;;;;;1.45;1.00;;;5.50;1.00;;;;;;5057800;28;20466;-82
2023/11/09 02:09:48;;;;;;;1.20;1.10;;;5.40;1.00;;;;;;5042432;28;20434;-82
2023/11/09 02:12:15;;;;;;;1.20;1.00;;;5.50;1.00;;;;;;5035854;28;20401;-82
2023/11/09 02:14:40;;;;;;;2.80;0.90;;;5.50;1.00;;;;;;5035729;28;20415;-82
2023/11/09 02:17:08;;;;;;;1.90;0.97;;;5.50;1.00;;;;;;5035622;28;20400;-83
2023/11/09 02:19:34;;;;;;;0.80;0.70;;;5.50;1.00;;;;;;5035336;28;20423;-82
2023/11/09 02:22:01;;;;;;;2.30;1.00;;;5.50;1.00;;;;;;5034941;28;20392;-82
2023/11/09 02:24:27;;;;;;;2.15;0.88;;;5.50;1.00;;;;;;5033377;28;20395;-82
2023/11/09 02:26:55;;;;;;;1.13;1.00;;;5.40;1.00;;;;;;5045569;28;20751;-82
2023/11/09 02:29:21;;;;;;;1.70;0.85;;;5.50;1.00;;;;;;5053990;28;20381;-82
2023/11/09 02:31:46;;;;;;;1.38;0.88;;;5.40;1.00;;;;;;5036135;28;20386;-82
2023/11/09 02:34:15;;;;;;;1.00;0.80;;;5.20;1.00;;;;;;5053043;28;20742;-82
2023/11/09 02:36:42;;;;;;;3.22;0.85;;;5.30;1.00;;;;;;5046359;28;20403;-81
2023/11/09 02:39:11;;;;;;;1.20;1.00;;;5.40;1.00;;;;;;5073908;28;20459;-81
2023/11/09 02:41:37;;;;;;;1.98;0.90;;;5.40;1.00;;;;;;5055417;28;20454;-82
2023/11/09 02:44:03;;;;;;;1.60;1.00;;;5.30;1.00;;;;;;5053942;28;20397;-82
2023/11/09 02:46:30;;;;;;;1.40;0.80;;;5.30;1.00;;;;;;5039888;28;20394;-81
2023/11/09 02:48:56;;;;;;;1.15;0.90;;;5.30;1.00;;;;;;5059918;28;20385;-81
2023/11/09 02:51:21;;;;;;;1.20;1.08;;;5.20;1.00;;;;;;5075858;28;20493;-81
2023/11/09 02:53:47;;;;;;;1.20;0.90;;;5.30;1.00;;;;;;5042357;28;20407;-81
2023/11/09 02:56:12;;;;;;;0.77;0.70;;;5.30;1.00;;;;;;5032390;28;20419;-82
2023/11/09 02:58:39;;;;;;;1.90;0.95;;;5.30;1.00;;;;;;5031437;28;20387;-82
2023/11/09 03:01:05;;;;;;;1.88;0.95;;;5.30;1.00;;;;;;5032210;28;20390;-82
2023/11/09 03:03:31;;;;;;;1.30;0.82;;;5.30;1.00;;;;;;5051543;28;20374;-83
2023/11/09 03:05:57;;;;;;;1.57;0.80;;;5.30;1.00;;;;;;5074591;28;20427;-82
2023/11/09 03:08:23;;;;;;;1.27;0.70;;;5.40;1.00;;;;;;5055241;28;20417;-83
2023/11/09 03:10:49;;;;;;;1.20;0.80;;;5.50;1.00;;;;;;5056716;28;20775;-82
2023/11/09 03:13:15;;;;;;;1.50;1.40;;;5.50;1.00;;;;;;5036142;28;20409;-82
2023/11/09 03:15:41;;;;;;;0.87;0.80;;;5.40;1.00;;;;;;5037111;28;20385;-82
2023/11/09 03:18:09;;;;;;;1.90;0.68;;;5.40;1.00;;;;;;5047138;28;20398;-83
2023/11/09 03:20:35;;;;;;;1.00;0.85;;;5.50;1.00;;;;;;5035617;28;20798;-82
2023/11/09 03:23:02;;;;;;;3.30;1.10;;;5.20;1.00;;;;;;5038798;28;20391;-82
2023/11/09 03:25:28;;;;;;;1.30;0.80;;;5.10;1.00;;;;;;5039839;28;20429;-82
2023/11/09 03:27:54;;;;;;;1.42;1.00;;;5.00;1.00;;;;;;5037257;28;20395;-82
2023/11/09 03:30:20;;;;;;;1.05;0.70;;;4.90;1.00;;;;;;5058069;28;20412;-82
2023/11/09 03:32:46;;;;;;;1.23;1.10;;;4.50;1.00;;;;;;5049717;28;20390;-82
2023/11/09 03:35:13;;;;;;;0.80;0.80;;;5.00;1.00;;;;;;5036913;28;20390;-82
2023/11/09 03:37:39;;;;;;;1.30;0.80;;;5.20;1.00;;;;;;5036918;28;20532;-82
2023/11/09 03:40:07;;;;;;;1.42;1.20;;;5.10;1.00;;;;;;5068564;28;20942;-82
2023/11/09 03:42:33;;;;;;;1.40;0.70;;;5.10;1.00;;;;;;5070286;28;21038;-81
2023/11/09 03:44:59;;;;;;;0.80;0.80;;;5.00;1.00;;;;;;5057058;28;20485;-83
2023/11/09 03:47:25;;;;;;;1.35;0.70;;;4.90;1.00;;;;;;5059940;28;20831;-81
2023/11/09 03:49:51;;;;;;;1.10;0.90;;;5.00;1.00;;;;;;5077280;28;20439;-80
2023/11/09 03:52:16;;;;;;;1.40;0.90;;;5.10;1.00;;;;;;5057112;28;20486;-81
2023/11/09 03:54:42;;;;;;;1.40;1.10;;;5.00;1.00;;;;;;5036255;28;20391;-82
2023/11/09 03:57:07;;;;;;;1.50;1.07;;;5.10;1.00;;;;;;5036007;28;20470;-82
2023/11/09 03:59:33;;;;;;;0.90;0.90;;;4.90;1.00;;;;;;5038465;28;20453;-82
2023/11/09 04:01:59;;;;;;;2.85;0.90;;;4.90;1.00;;;;;;5038669;28;20401;-82
2023/11/09 04:04:25;;;;;;;1.00;0.90;;;4.80;1.00;;;;;;5056727;28;20829;-82
2023/11/09 04:06:51;;;;;;;1.40;1.20;;;4.90;1.00;;;;;;5038742;28;20910;-82
2023/11/09 04:09:18;;;;;;;1.00;0.90;;;5.00;1.00;;;;;;5038911;28;20515;-81
2023/11/09 04:11:44;;;;;;;2.15;1.10;;;4.80;1.00;;;;;;5035752;28;20976;-82
2023/11/09 04:14:10;;;;;;;1.20;1.00;;;4.90;1.00;;;;;;5036563;28;20391;-82
2023/11/09 04:16:35;;;;;;;1.48;1.00;;;4.80;1.00;;;;;;5037853;28;20402;-81
2023/11/09 04:19:01;;;;;;;1.30;1.20;;;4.80;1.00;;;;;;5037209;28;20390;-81
2023/11/09 04:21:27;;;;;;;1.95;0.90;;;4.80;1.00;;;;;;5038695;28;20437;-81
2023/11/09 04:23:52;;;;;;;1.17;0.90;;;4.90;1.00;;;;;;5036311;28;20771;-82
2023/11/09 04:26:18;;;;;;;1.20;1.10;;;4.80;1.00;;;;;;5036203;28;20394;-82
2023/11/09 04:28:43;;;;;;;1.00;0.90;;;4.90;1.00;;;;;;5034733;28;20419;-81
2023/11/09 04:31:10;;;;;;;1.45;0.90;;;4.90;1.00;;;;;;5035703;28;20403;-81
2023/11/09 04:33:36;;;;;;;1.50;1.10;;;4.90;1.00;;;;;;5036268;28;20395;-81
2023/11/09 04:36:05;;;;;;;1.10;0.80;;;4.90;1.00;;;;;;5052573;28;20435;-82
2023/11/09 04:38:37;;;;;;;1.10;0.90;;;4.90;1.00;;;;;;5059453;28;20431;-81
2023/11/09 04:41:16;;;;;;;0.98;0.90;;;4.90;1.00;;;;;;5041651;28;20781;-81
2023/11/09 04:43:42;;;;;;;1.13;1.00;;;4.90;1.00;;;;;;5064449;28;20380;-82
2023/11/09 04:46:17;;;;;;;2.60;1.05;;;5.00;1.00;;;;;;5058216;28;20400;-82
2023/11/09 04:48:47;;;;;;;1.50;1.10;;;5.10;1.00;;;;;;5058110;28;20927;-82
2023/11/09 04:51:26;;;;;;;1.17;1.08;;;5.00;1.00;;;;;;5055196;28;20405;-81
2023/11/09 04:53:52;;;;;;;0.88;0.80;;;5.10;1.00;;;;;;5047750;28;20395;-82
2023/11/09 05:07:28;;;;;;;1.10;1.00;;;5.10;1.00;;;;;;5038157;28;20406;-82
2023/11/09 05:09:56;;;;;;;2.13;1.17;;;5.10;1.00;;;;;;5036658;28;20407;-84
2023/11/09 05:12:22;;;;;;;1.10;1.00;;;5.00;1.00;;;;;;5041145;28;20383;-81
2023/11/09 05:14:48;;;;;;;1.80;1.20;;;4.90;1.00;;;;;;5053086;28;20429;-81
2023/11/09 05:17:14;;;;;;;1.20;1.10;;;5.00;1.00;;;;;;5045955;28;20389;-82
2023/11/09 05:19:41;;;;;;;1.30;1.20;;;5.10;1.00;;;;;;5043899;28;20386;-81
2023/11/09 05:22:10;;;;;;;1.70;1.30;;;5.00;1.00;;;;;;5059955;28;20459;-82
2023/11/09 05:24:40;;;;;;;2.40;1.48;;;5.00;1.00;;;;;;5038926;28;20399;-82
2023/11/09 05:27:10;;;;;;;1.40;1.30;;;5.10;1.00;;;;;;5038180;28;20389;-82
2023/11/09 05:29:36;;;;;;;1.27;1.17;;;5.20;1.00;;;;;;5039341;28;20576;-81
2023/11/09 05:32:06;;;;;;;1.90;1.42;;;5.30;1.00;;;;;;5041076;28;20385;-82
2023/11/09 05:34:33;;;;;;;2.70;1.20;;;5.40;1.00;;;;;;5035678;28;20920;-83
2023/11/09 05:37:02;;;;;;;3.10;1.40;;;5.40;1.00;;;;;;5055122;28;20393;-83
2023/11/09 05:39:29;;;;;;;1.52;1.23;;;5.40;1.00;;;;;;5038649;28;20435;-82
2023/11/09 05:41:55;;;;;;;2.58;1.45;;;5.50;1.00;;;;;;5056313;28;20395;-83
2023/11/09 05:44:21;;;;;;;3.50;1.80;;;5.60;1.00;;;;;;5057715;28;20389;-83
2023/11/09 05:46:47;;;;;;;3.27;1.70;;;5.60;1.00;;;;;;5054089;28;20454;-82
2023/11/09 05:49:12;;;;;;;1.70;1.60;;;5.80;1.00;;;;;;5039887;28;20776;-82
2023/11/09 05:51:39;;;;;;;1.70;1.08;;;5.80;1.00;;;;;;5054353;28;20388;-82
2023/11/09 05:54:06;;;;;;;1.77;1.50;;;5.90;1.00;;;;;;5033759;28;20397;-82
2023/11/09 05:56:32;;;;;;;2.00;1.30;;;6.00;1.00;;;;;;5036260;28;20386;-83
2023/11/09 05:58:58;;;;;;;1.25;1.05;;;5.90;1.00;;;;;;5037209;28;20397;-83
2023/11/09 06:01:24;;;;;;;1.90;1.10;;;5.90;1.00;;;;;;5035564;28;20396;-83
2023/11/09 06:03:50;;;;;;;1.70;1.30;;;6.00;1.00;;;;;;5042459;28;20416;-82
2023/11/09 06:06:16;;;;;;;1.30;1.20;;;5.90;1.00;;;;;;5057273;28;20468;-83
2023/11/09 06:08:43;;;;;;;1.58;1.30;;;5.90;1.00;;;;;;5038476;28;20381;-83
2023/11/09 06:11:10;;;;;;;1.92;1.50;;;5.80;1.00;;;;;;5057269;28;20903;-83
2023/11/09 06:13:37;;;;;;;2.00;1.50;;;5.80;1.00;;;;;;5053612;28;20402;-83
2023/11/09 06:16:05;;;;;;;1.90;1.20;;;6.00;1.00;;;;;;5036660;28;20486;-82
2023/11/09 06:18:32;;;;;;;1.70;1.60;;;5.90;1.00;;;;;;5054506;28;20389;-81
2023/11/09 06:21:00;;;;;;;1.70;1.40;;;6.10;1.00;;;;;;5056368;28;20397;-82
2023/11/09 06:23:28;;;;;;;1.90;1.30;;;6.00;1.00;;;;;;5038580;28;20393;-82
2023/11/09 06:25:55;;;;;;;2.80;1.80;;;6.10;1.00;;;;;;5062756;28;20434;-81
2023/11/09 06:28:22;;;;;;;2.30;1.70;;;6.20;1.00;;;;;;5067081;28;20397;-82
2023/11/09 06:30:48;;;;;;;2.60;1.30;;;6.40;1.00;;;;;;5058951;28;20406;-82
2023/11/09 06:33:14;;;;;;;4.67;1.50;;;7.80;1.00;;;;;;5069311;28;20390;-82
2023/11/09 06:35:40;;;;;;;2.00;1.40;;;8.00;1.00;;;;;;5060635;28;20389;-83
2023/11/09 06:38:08;;;;;;;2.00;1.48;;;7.80;1.00;;;;;;5055659;28;20377;-80
2023/11/09 06:40:37;;;;;;;2.80;1.70;;;7.50;1.00;;;;;;5055791;28;20420;-82
2023/11/09 06:43:03;;;;;;;2.60;1.48;;;7.30;1.00;;;;;;5056709;28;20397;-82
2023/11/09 06:45:28;;;;;;;1.30;1.10;;;7.50;1.00;;;;;;5056061;28;20400;-82
2023/11/09 06:47:54;;;;;;;2.10;1.30;;;7.70;1.00;;;;;;5056193;28;20803;-82
2023/11/09 06:50:20;;;;;;;1.30;1.20;;;7.70;1.00;;;;;;5032649;28;20614;-82
2023/11/09 06:52:46;;;;;;;1.50;0.65;;;7.80;1.00;;;;;;5033613;28;20387;-83
2023/11/09 06:55:17;;;;;;;0.60;0.55;;;8.10;1.00;;;;;;5033280;28;20863;-82
2023/11/09 06:57:44;;;;;;;0.60;0.43;;;9.30;1.00;;;;;;5034374;28;20386;-81
2023/11/09 07:00:11;;;;;;;2.30;0.77;;;9.80;1.00;;;;;;5033869;28;20472;-82
2023/11/09 07:02:40;;;;;;;0.98;0.70;;;9.80;1.00;;;;;;5038136;28;20406;-84
2023/11/09 07:05:07;;;;;;;1.27;1.00;;;9.50;1.00;;;;;;5063161;28;20400;-85
2023/11/09 07:07:39;;;;;;;2.30;0.80;;;9.20;1.00;;;;;;5047797;28;20374;-85
2023/11/09 07:10:07;;;;;;;0.60;0.50;;;9.00;1.00;;;;;;5074805;28;20397;-86
2023/11/09 07:12:33;;;;;;;0.65;0.40;;;9.30;1.00;;;;;;5058155;28;20456;-84
2023/11/09 07:14:58;;;;;;;0.82;0.68;;;9.50;1.00;;;;;;5051175;28;20393;-84
2023/11/09 07:17:24;;;;;;;1.73;0.90;;;9.50;1.00;;;;;;5036122;28;20398;-85
2023/11/09 07:19:50;;;;;;;2.10;0.68;;;8.80;1.00;;;;;;5035210;28;20392;-85
2023/11/09 07:22:17;;;;;;;0.90;0.70;;;9.20;1.00;;;;;;5034476;28;20425;-85
2023/11/09 07:24:49;;;;;;;1.23;0.60;;;8.80;1.00;;;;;;5034524;28;20390;-85
2023/11/09 07:27:18;;;;;;;1.00;0.82;;;11.50;1.00;;;;;;5036908;28;20481;-85
2023/11/09 07:29:44;;;;;;;2.80;0.70;;;9.20;1.00;;;;;;5031521;28;20415;-85
2023/11/09 07:32:10;;;;;;;0.80;0.70;;;10.10;1.00;;;;;;5031406;28;20983;-86
2023/11/09 07:34:37;;;;;;;1.03;0.80;;;10.10;1.00;;;;;;5031293;28;20473;-85
2023/11/09 07:37:03;;;;;;;2.13;0.77;;;9.90;1.00;;;;;;5031832;28;20390;-85
2023/11/09 07:39:29;;;;;;;0.80;0.60;;;9.70;1.00;;;;;;5030870;28;20391;-85
2023/11/09 07:42:03;;;;;;;1.00;0.60;;;9.90;1.00;;;;;;5032001;28;20883;-85
2023/11/09 07:44:28;;;;;;;1.13;0.88;;;9.70;1.00;;;;;;5050687;28;20387;-83
2023/11/09 07:46:55;;;;;;;1.33;0.67;;;9.70;1.00;;;;;;5085879;22;20440;-81
2023/11/09 07:49:21;;;;;;;0.60;0.50;;;10.30;1.00;;;;;;5062259;28;20404;-81
2023/11/09 07:51:48;;;;;;;1.40;0.70;;;10.40;1.00;;;;;;5043691;28;20399;-82
2023/11/09 07:54:14;;;;;;;0.97;0.60;;;10.40;1.00;;;;;;5041939;28;20818;-81
2023/11/09 07:56:40;;;;;;;1.23;0.47;;;10.50;1.00;;;;;;5041761;28;20765;-81
2023/11/09 07:59:06;;;;;;;0.90;0.50;;;10.50;1.00;;;;;;5040896;28;20387;-81
2023/11/09 08:01:31;;;;;;;0.90;0.50;;;10.70;1.00;;;;;;5051921;28;20463;-79
2023/11/09 08:03:57;;;;;;;1.00;0.60;;;10.90;1.00;;;;;;5056821;28;20395;-80
2023/11/09 08:06:23;;;;;;;0.70;0.50;;;10.90;1.00;;;;;;5041767;28;20928;-80
2023/11/09 08:08:51;;;;;;;0.60;0.40;;;10.90;1.00;;;;;;5061997;28;20762;-80
2023/11/09 08:11:18;;;;;;;0.70;0.60;;;10.90;1.00;;;;;;5061068;28;20901;-80
2023/11/09 08:13:44;;;;;;;0.73;0.43;;;10.80;1.00;;;;;;5063238;28;20940;-81
2023/11/09 08:16:09;;;;;;;1.20;0.50;;;10.80;1.00;;;;;;5062354;28;20420;-80
2023/11/09 08:18:35;;;;;;;1.70;0.77;;;11.00;1.00;;;;;;5062236;28;20381;-80
2023/11/09 08:21:03;;;;;;;1.00;0.50;;;10.90;1.00;;;;;;5061822;28;20386;-80
2023/11/09 08:23:32;;;;;;;1.42;0.60;;;10.90;1.00;;;;;;5061606;28;20424;-80
2023/11/09 08:25:57;;;;;;;0.88;0.60;;;10.90;1.00;;;;;;5061740;28;20389;-82
2023/11/09 08:28:27;;;;;;;0.70;0.45;;;11.30;1.00;;;;;;5045255;28;20393;-81
2023/11/09 08:30:52;;;;;;;0.90;0.60;;;11.40;1.00;;;;;;5046433;28;20462;-80
2023/11/09 08:33:22;;;;;;;0.70;0.50;;;11.50;1.00;;;;;;5062293;28;20497;-81
2023/11/09 08:35:51;;;;;;;1.20;0.60;;;11.50;1.00;;;;;;5062266;28;20430;-81
2023/11/09 08:38:16;;;;;;;0.73;0.60;;;11.50;1.00;;;;;;5043359;28;20391;-80
2023/11/09 08:40:47;;;;;;;0.60;0.40;;;11.30;1.00;;;;;;5061548;28;20481;-81
2023/11/09 08:43:13;;;;;;;0.80;0.50;;;11.30;1.00;;;;;;5057399;28;20411;-80
2023/11/09 08:45:40;;;;;;;1.40;0.50;;;11.40;1.00;;;;;;5041402;28;20399;-81
2023/11/09 08:48:07;;;;;;;0.60;0.50;;;11.40;1.00;;;;;;5042979;28;20391;-80
2023/11/09 08:50:35;;;;;;;0.80;0.50;;;11.40;1.00;;;;;;5024612;28;20411;-79
2023/11/09 08:53:01;;;;;;;0.50;0.40;;;11.50;1.00;;;;;;5041377;28;20449;-79
2023/11/09 08:55:26;;;;;;;0.95;0.60;;;11.60;1.00;;;;;;5042682;28;20917;-79
2023/11/09 08:57:54;;;;;;;0.90;0.50;;;11.60;1.00;;;;;;5041636;28;20387;-81
2023/11/09 09:00:23;;;;;;;0.90;0.55;;;11.80;1.00;;;;;;5041584;28;20391;-80
2023/11/09 09:02:49;;;;;;;0.70;0.60;;;11.80;1.00;;;;;;5025317;28;20413;-79
2023/11/09 09:05:19;;;;;;;1.00;0.70;;;11.90;1.00;;;;;;5041212;28;20410;-80
2023/11/09 09:07:45;;;;;;;1.00;0.50;;;11.90;1.00;;;;;;5023129;28;20441;-81
2023/11/09 09:10:16;;;;;;;1.00;0.50;;;11.90;1.00;;;;;;5040324;28;20403;-80
2023/11/09 09:12:45;;;;;;;2.80;0.60;;;12.10;1.00;;;;;;5024330;28;20387;-81
2023/11/09 09:15:19;;;;;;;0.80;0.50;;;12.00;1.00;;;;;;5024392;28;20385;-81
2023/11/09 09:17:46;;;;;;;1.50;0.60;;;12.10;1.00;;;;;;5041727;28;20383;-81
2023/11/09 09:20:15;;;;;;;1.90;0.50;;;12.20;1.00;;;;;;5023650;28;20395;-81
2023/11/09 09:22:43;;;;;;;0.80;0.50;;;12.30;1.00;;;;;;5023789;28;20379;-82
2023/11/09 09:25:12;;;;;;;0.60;0.40;;;12.30;1.00;;;;;;5020547;28;20400;-80
2023/11/09 09:27:41;;;;;;;0.50;0.35;;;12.40;1.00;;;;;;5039987;28;20411;-80
2023/11/09 09:30:10;;;;;;;0.70;0.50;;;12.50;1.00;;;;;;5038409;28;20414;-80
2023/11/09 09:32:50;;;;;;;0.60;0.50;;;12.60;1.00;;;;;;5039817;28;20465;-81
2023/11/09 09:35:20;;;;;;;1.25;0.30;;;12.60;1.00;;;;;;5020943;28;20460;-81
2023/11/09 09:37:46;;;;;;;0.80;0.50;;;12.80;1.00;;;;;;5022478;28;21010;-81
2023/11/09 09:40:15;;;;;;;1.10;0.50;;;12.90;1.00;;;;;;5037270;28;20399;-79
2023/11/09 09:42:52;;;;;;;0.60;0.50;;;12.90;1.00;;;;;;5019450;28;20814;-81
2023/11/09 09:45:24;;;;;;;0.60;0.40;;;12.90;1.00;;;;;;5002635;28;20405;-80
2023/11/09 09:47:52;;;;;;;1.30;0.40;;;13.00;1.00;;;;;;5019531;28;20397;-81
2023/11/09 09:50:25;;;;;;;1.08;0.80;;;12.90;1.00;;;;;;5001688;28;20475;-79
2023/11/09 09:52:53;;;;;;;0.88;0.40;;;12.80;1.00;;;;;;5023689;28;20388;-79
2023/11/09 09:55:21;;;;;;;0.70;0.50;;;12.80;1.00;;;;;;5021904;28;20388;-82
2023/11/09 09:57:47;;;;;;;0.60;0.40;;;12.70;1.00;;;;;;5002325;28;20385;-81
2023/11/09 10:00:26;;;;;;;1.08;0.50;;;12.60;1.00;;;;;;5020189;28;20392;-81
2023/11/09 10:02:51;;;;;;;0.80;0.40;;;12.70;1.00;;;;;;5018903;28;20396;-81
2023/11/09 10:05:23;;;;;;;0.60;0.40;;;12.50;1.00;;;;;;5019582;28;20396;-81
2023/11/09 10:08:09;;;;;;;0.70;0.50;;;12.50;1.00;;;;;;5002295;28;20401;-82
2023/11/09 10:10:44;;;;;;;1.00;0.40;;;12.60;1.00;;;;;;5019548;28;20900;-82
2023/11/09 10:13:13;;;;;;;0.80;0.40;;;12.60;1.00;;;;;;5020602;28;20403;-80
2023/11/09 10:15:43;;;;;;;1.10;0.50;;;12.50;1.00;;;;;;5019552;28;20377;-81
2023/11/09 10:18:11;;;;;;;1.58;0.70;;;12.70;1.00;;;;;;5001405;28;20403;-81
2023/11/09 10:20:37;;;;;;;2.70;0.60;;;12.60;1.00;;;;;;5003160;28;20385;-81
2023/11/09 10:23:08;;;;;;;0.60;0.50;;;12.70;1.00;;;;;;5020491;28;20389;-80
2023/11/09 10:25:36;;;;;;;1.50;0.50;;;12.80;1.00;;;;;;5000439;28;20801;-80
2023/11/09 10:28:02;;;;;;;1.33;0.50;;;12.70;1.00;;;;;;5017603;28;20385;-80
2023/11/09 10:30:35;;;;;;;0.50;0.30;;;13.30;1.00;;;;;;5016979;28;20405;-80
2023/11/09 10:33:03;;;;;;;1.00;0.60;;;12.60;1.00;;;;;;5000392;28;20389;-80
2023/11/09 10:35:28;;;;;;;0.80;0.50;;;12.60;1.00;;;;;;5016855;28;20412;-82
2023/11/09 10:37:57;;;;;;;0.60;0.50;;;12.60;1.00;;;;;;5007858;28;20405;-82
2023/11/09 10:40:23;;;;;;;0.90;0.50;;;12.70;1.00;;;;;;5029429;28;20512;-79
2023/11/09 10:42:51;;;;;;;1.40;0.40;;;12.60;1.00;;;;;;5018291;28;20447;-77
2023/11/09 10:45:22;;;;;;;1.80;0.40;;;12.60;1.00;;;;;;5038834;28;20391;-82
2023/11/09 10:47:50;;;;;;;0.95;0.40;;;12.50;1.00;;;;;;5035778;28;20498;-79
2023/11/09 10:50:18;;;;;;;0.70;0.40;;;12.40;1.00;;;;;;5018343;28;20407;-81
2023/11/09 10:52:44;;;;;;;1.00;0.40;;;12.30;1.00;;;;;;5037745;28;20390;-79
2023/11/09 10:55:11;;;;;;;0.50;0.40;;;12.30;1.00;;;;;;5035696;28;20391;-77
2023/11/09 10:57:43;;;;;;;0.70;0.40;;;12.20;1.00;;;;;;5035262;28;20379;-81
2023/11/09 11:00:11;;;;;;;0.90;0.60;;;12.10;1.00;;;;;;5017433;28;20451;-79
2023/11/09 11:02:49;;;;;;;1.20;0.50;;;12.00;1.00;;;;;;5036195;28;20389;-80
2023/11/09 11:05:18;;;;;;;0.90;0.50;;;11.90;1.00;;;;;;5018867;28;20399;-81
2023/11/09 11:07:44;;;;;;;0.70;0.50;;;11.80;1.00;;;;;;5017517;28;20395;-80
2023/11/09 11:10:14;;;;;;;0.90;0.50;;;11.80;1.00;;;;;;5036444;28;20407;-81
2023/11/09 11:12:42;;;;;;;0.70;0.40;;;11.70;1.00;;;;;;5020082;28;20466;-82
2023/11/09 11:15:10;;;;;;;0.80;0.40;;;11.60;1.00;;;;;;5019677;28;20390;-83
2023/11/09 11:17:55;;;;;;;1.02;0.40;;;11.50;1.00;;;;;;5022900;28;20382;-81
2023/11/09 11:20:51;;;;;;;0.50;0.40;;;11.90;1.00;;;;;;5020209;28;20394;-81
2023/11/09 11:23:38;;;;;;;0.40;0.35;;;11.60;1.00;;;;;;5039930;28;20426;-80
2023/11/09 11:26:10;;;;;;;0.60;0.40;;;11.60;1.00;;;;;;5038957;28;20387;-80
2023/11/09 11:28:40;;;;;;;0.80;0.60;;;11.60;1.00;;;;;;5041495;28;20419;-80
2023/11/09 11:31:07;;;;;;;0.70;0.50;;;11.60;1.00;;;;;;5039387;28;20399;-81
2023/11/09 11:33:37;;;;;;;0.80;0.50;;;11.60;1.00;;;;;;5022742;28;20391;-81
2023/11/09 11:36:04;;;;;;;0.70;0.60;;;11.60;1.00;;;;;;5019940;28;20418;-81
2023/11/09 11:38:32;;;;;;;1.50;1.00;;;11.60;1.00;;;;;;5021615;28;20389;-81
2023/11/09 11:41:02;;;;;;;0.80;0.60;;;11.50;1.00;;;;;;5041566;28;20436;-81
2023/11/09 11:43:39;;;;;;;0.80;0.60;;;11.60;1.00;;;;;;5040422;28;20450;-82
2023/11/09 11:46:08;;;;;;;1.00;0.80;;;11.50;1.00;;;;;;5025555;28;20501;-83
2023/11/09 11:48:34;;;;;;;0.80;0.50;;;11.40;1.00;;;;;;5024530;28;20394;-81
2023/11/09 11:51:06;;;;;;;0.70;0.40;;;11.30;1.00;;;;;;5024194;28;20516;-83
2023/11/09 11:53:33;;;;;;;0.70;0.57;;;11.30;1.00;;;;;;5026529;28;20386;-83
2023/11/09 11:56:02;;;;;;;0.60;0.40;;;11.20;1.00;;;;;;5026317;28;20393;-83
2023/11/09 11:58:46;;;;;;;0.73;0.50;;;11.30;1.00;;;;;;5027849;28;20398;-83
2023/11/09 12:01:29;;;;;;;0.80;0.60;;;11.50;1.00;;;;;;5048440;28;20448;-83
2023/11/09 12:03:58;;;;;;;0.50;0.40;;;11.60;1.00;;;;;;5027334;28;20390;-83
2023/11/09 12:06:31;;;;;;;0.82;0.40;;;11.80;1.00;;;;;;5024363;28;20452;-83
2023/11/09 12:09:02;;;;;;;0.60;0.50;;;12.50;1.00;;;;;;5044972;28;20404;-82
2023/11/09 12:11:33;;;;;;;0.50;0.30;;;12.00;1.00;;;;;;5065715;28;20412;-84
2023/11/09 12:14:04;;;;;;;0.77;0.40;;;11.90;1.00;;;;;;5044753;28;20813;-83
2023/11/09 12:16:30;;;;;;;0.60;0.40;;;13.30;1.00;;;;;;5042573;28;20391;-85
2023/11/09 12:18:56;;;;;;;0.88;0.40;;;12.00;1.00;;;;;;5029231;28;20463;-82
2023/11/09 12:21:23;;;;;;;0.60;0.40;;;11.80;1.00;;;;;;5021379;28;20400;-82
2023/11/09 12:23:53;;;;;;;0.98;0.50;;;11.90;1.00;;;;;;5006634;28;20385;-82
2023/11/09 12:26:20;;;;;;;1.30;0.40;;;11.80;1.00;;;;;;5022885;28;20408;-85
2023/11/09 12:28:48;;;;;;;0.70;0.40;;;14.50;1.00;;;;;;5016715;28;20402;-81
2023/11/09 12:31:15;;;;;;;0.80;0.40;;;11.90;1.00;;;;;;5029046;28;20411;-84
2023/11/09 12:33:41;;;;;;;0.70;0.40;;;12.10;1.00;;;;;;5027285;28;20387;-84
2023/11/09 12:36:07;;;;;;;0.50;0.40;;;12.10;1.00;;;;;;5030497;28;20399;-84
2023/11/09 12:38:34;;;;;;;0.60;0.40;;;12.10;1.00;;;;;;5027042;28;20393;-84
2023/11/09 12:41:02;;;;;;;0.80;0.40;;;11.00;1.00;;;;;;5026091;28;20479;-83
2023/11/09 12:43:36;;;;;;;0.70;0.40;;;13.00;1.00;;;;;;5046103;28;20399;-85
2023/11/09 12:46:04;;;;;;;0.90;0.40;;;13.40;1.00;;;;;;5028330;28;20395;-84
2023/11/09 12:48:44;;;;;;;1.00;0.40;;;11.90;1.00;;;;;;5043820;28;20474;-84
2023/11/09 12:51:13;;;;;;;0.80;0.40;;;11.90;1.00;;;;;;5045395;28;20418;-81
2023/11/09 12:53:40;;;;;;;0.60;0.40;;;11.70;1.00;;;;;;5045736;28;20890;-82
2023/11/09 12:56:07;;;;;;;1.30;0.50;;;11.70;1.00;;;;;;5029878;28;20391;-84
2023/11/09 12:58:36;;;;;;;0.90;0.50;;;11.70;1.00;;;;;;5019258;28;20917;-85
2023/11/09 13:01:04;;;;;;;0.90;0.70;;;11.60;1.00;;;;;;5023529;28;20391;-83
2023/11/09 13:03:31;;;;;;;2.40;0.73;;;11.50;1.00;;;;;;5042418;28;20412;-83
2023/11/09 13:05:59;;;;;;;0.95;0.50;;;11.20;1.00;;;;;;5045756;28;20409;-82
2023/11/09 13:08:25;;;;;;;0.70;0.50;;;11.00;1.00;;;;;;5061776;28;20755;-82
2023/11/09 13:10:57;;;;;;;0.77;0.60;;;11.00;1.00;;;;;;5064600;28;20480;-83
2023/11/09 13:13:24;;;;;;;1.50;0.60;;;10.90;1.00;;;;;;5067133;28;20378;-83
2023/11/09 13:15:50;;;;;;;1.20;0.50;;;11.00;1.00;;;;;;5064302;28;20904;-83